Arctic Taglu — CY8968 — position and weather

sailwx.info

Track history (hours):
 
Tides and Currents Weather Stations Pressure Air Temp Water Temp Dewpoint Dewpoint Depression Visibility Wind Speed Wind Dir Waves Ship Positions

Arctic Taglu

Last reported at 2014-Nov-24 05:33 UTC. Time now 2014-Nov-24 07:00 UTC.
Position N 49°09' W 123°02'.

Length 33 m; draft 6 m.

Type: Tug. MMSI: 316003483.

Date/timePositionNaut miles runAvg speedWind from/ knotsBaromVisibWave heightAir tempDewpointWater temp
2014-Nov-24 05:33N 49°09' W 123°02'0 0.0
2014-Nov-24 04:33N 49°09' W 123°02'0 0.0
2014-Nov-24 03:33N 49°09' W 123°02'0 0.0
2014-Nov-24 02:33N 49°09' W 123°02'0 0.0
2014-Nov-24 01:33N 49°09' W 123°02'0 0.0
2014-Nov-24 00:33N 49°09' W 123°02'0 0.0
2014-Nov-23 23:33N 49°09' W 123°02'0 0.0
2014-Nov-23 22:33N 49°09' W 123°02'0 0.0
2014-Nov-23 21:33N 49°09' W 123°02'0 0.0
2014-Nov-23 20:33N 49°09' W 123°02'0 0.0
2014-Nov-23 19:33N 49°09' W 123°02'0 0.0
2014-Nov-23 18:33N 49°09' W 123°02'0 0.0
2014-Nov-23 17:33N 49°09' W 123°02'0 0.0
2014-Nov-23 16:33N 49°09' W 123°02'0 0.0
2014-Nov-23 15:33N 49°09' W 123°02'0 0.0
2014-Nov-23 14:33N 49°09' W 123°02'0 0.0
2014-Nov-23 13:33N 49°09' W 123°02'0 0.0
2014-Nov-23 12:33N 49°09' W 123°02'0 0.0
2014-Nov-23 11:33N 49°09' W 123°02'0 0.0
2014-Nov-23 10:33N 49°09' W 123°02'0 0.0
2014-Nov-23 09:33N 49°09' W 123°02'0 0.0
2014-Nov-23 08:33N 49°09' W 123°02'0 0.0
2014-Nov-23 07:30N 49°09' W 123°02'0 0.0
2014-Nov-23 06:33N 49°09' W 123°02'0 0.0
2014-Nov-23 05:33N 49°09' W 123°02'0 0.0
2014-Nov-23 04:33N 49°09' W 123°02'0 0.0
2014-Nov-23 03:33N 49°09' W 123°02'0 0.0
2014-Nov-23 02:33N 49°09' W 123°02'0 0.0
2014-Nov-23 01:33N 49°09' W 123°02'0 0.0
2014-Nov-23 00:33N 49°09' W 123°02'0 0.0
2014-Nov-22 23:33N 49°09' W 123°02'0 0.0
2014-Nov-22 22:33N 49°09' W 123°02'0 0.0
2014-Nov-22 21:30N 49°09' W 123°02'0 0.0
2014-Nov-22 20:33N 49°09' W 123°02'0 0.0
2014-Nov-22 19:33N 49°09' W 123°02'0 0.0
2014-Nov-22 18:33N 49°09' W 123°02'0 0.0
2014-Nov-22 17:30N 49°09' W 123°02'0 0.0
2014-Nov-22 16:33N 49°09' W 123°02'0 0.0
2014-Nov-22 15:33N 49°09' W 123°02'6 6.1
2014-Nov-22 14:33N 49°07' W 123°11'9 8.9
2014-Nov-22 13:33N 49°07' W 123°25'8 7.9
2014-Nov-22 12:33N 49°10' W 123°36'8 8.2
2014-Nov-22 11:33N 49°13' W 123°48'6 6.0
2014-Nov-22 10:33N 49°10' W 123°56'0 0.0
2014-Nov-22 09:33N 49°10' W 123°56'4 3.7
2014-Nov-22 08:33N 49°12' W 123°51'10 9.7
2014-Nov-22 07:33N 49°10' W 123°37'10 9.8
2014-Nov-22 06:33N 49°06' W 123°23'1212.0
2014-Nov-22 05:34N 49°07' W 123°05'2 2.4
2014-Nov-22 04:33N 49°09' W 123°02'0 0.0
2014-Nov-22 03:33N 49°09' W 123°02'0 0.0
2014-Nov-22 02:33N 49°09' W 123°02'0 0.0
2014-Nov-22 01:33N 49°09' W 123°02'0 0.0
2014-Nov-22 00:33N 49°09' W 123°02'0 0.0
2014-Nov-21 23:33N 49°09' W 123°02'0 0.0
2014-Nov-21 22:33N 49°09' W 123°02'0 0.0
2014-Nov-21 21:33N 49°09' W 123°02'0 0.0
2014-Nov-21 20:34N 49°09' W 123°02'0 0.0
2014-Nov-21 19:33N 49°09' W 123°02'0 0.0
2014-Nov-21 18:33N 49°09' W 123°02'0 0.0
2014-Nov-21 17:33N 49°09' W 123°02'0 0.0
2014-Nov-21 16:34N 49°09' W 123°02'0 0.0
2014-Nov-21 15:34N 49°09' W 123°02'5 4.6
2014-Nov-21 14:34N 49°07' W 123°08'9 9.3
2014-Nov-21 13:33N 49°07' W 123°23'10 9.5
2014-Nov-21 12:33N 49°10' W 123°36'9 9.1
2014-Nov-21 11:33N 49°13' W 123°49'5 5.1
2014-Nov-21 10:33N 49°10' W 123°56'0 0.0
2014-Nov-21 09:33N 49°10' W 123°56'3 2.7
2014-Nov-21 08:33N 49°12' W 123°53'10 9.7
2014-Nov-21 07:33N 49°10' W 123°38'1010.3
2014-Nov-21 06:33N 49°06' W 123°24'1211.9
2014-Nov-21 05:34N 49°07' W 123°06'3 2.9
2014-Nov-21 04:33N 49°09' W 123°02'0 0.0
2014-Nov-21 03:33N 49°09' W 123°02'0 0.0
2014-Nov-21 02:33N 49°09' W 123°02'0 0.0
2014-Nov-21 01:31N 49°09' W 123°02'0 0.0
2014-Nov-21 00:33N 49°09' W 123°02'0 0.0
2014-Nov-20 23:33N 49°09' W 123°02'0 0.0
2014-Nov-20 22:33N 49°09' W 123°02'0 0.0
2014-Nov-20 21:33N 49°09' W 123°02'0 0.0
2014-Nov-20 20:33N 49°09' W 123°02'0 0.0
2014-Nov-20 19:33N 49°09' W 123°02'0 0.0
2014-Nov-20 18:33N 49°09' W 123°02'0 0.0
2014-Nov-20 17:33N 49°09' W 123°02'0 0.0
2014-Nov-20 16:33N 49°09' W 123°02'0 0.0
2014-Nov-20 15:33N 49°09' W 123°02'4 3.7
2014-Nov-20 14:33N 49°07' W 123°07'9 9.2
2014-Nov-20 13:33N 49°06' W 123°21'10 9.5
2014-Nov-20 12:33N 49°10' W 123°35'10 9.7
2014-Nov-20 11:33N 49°13' W 123°49'6 5.6
2014-Nov-20 10:33N 49°10' W 123°56'0 0.0
2014-Nov-20 09:33N 49°10' W 123°56'4 4.1
2014-Nov-20 08:33N 49°13' W 123°51'1010.0
2014-Nov-20 07:33N 49°10' W 123°36'1010.3
2014-Nov-20 06:33N 49°06' W 123°22'1111.5
2014-Nov-20 05:33N 49°07' W 123°04'2 2.0
2014-Nov-20 04:33N 49°09' W 123°02'0 0.0
2014-Nov-20 03:31N 49°09' W 123°02'0 0.0
2014-Nov-20 02:31N 49°09' W 123°02'0 0.0
2014-Nov-20 01:31N 49°09' W 123°02'0 0.0
2014-Nov-20 00:31N 49°09' W 123°02'0 0.0
2014-Nov-19 23:31N 49°09' W 123°02'0 0.0
2014-Nov-19 22:31N 49°09' W 123°02'0 0.0
2014-Nov-19 21:31N 49°09' W 123°02'0 0.0
2014-Nov-19 20:31N 49°09' W 123°02'0 0.0
2014-Nov-19 19:28N 49°09' W 123°02'0 0.0
2014-Nov-19 18:31N 49°09' W 123°02'0 0.0
2014-Nov-19 17:31N 49°09' W 123°02'0 0.0
2014-Nov-19 16:33N 49°09' W 123°02'0 0.0
2014-Nov-19 15:33N 49°09' W 123°02'3 2.9
2014-Nov-19 14:33N 49°07' W 123°06'9 8.6
2014-Nov-19 13:33N 49°06' W 123°19'1010.0
2014-Nov-19 12:33N 49°09' W 123°33'10 9.9
2014-Nov-19 11:33N 49°13' W 123°47'7 6.2
2014-Nov-19 10:28N 49°10' W 123°56'0 0.0
2014-Nov-19 09:33N 49°10' W 123°56'4 4.2
2014-Nov-19 08:33N 49°13' W 123°51'1010.0
2014-Nov-19 07:33N 49°10' W 123°36'10 9.9
2014-Nov-19 06:33N 49°07' W 123°22'1111.2
2014-Nov-19 05:33N 49°07' W 123°05'2 2.5
2014-Nov-19 04:33N 49°09' W 123°02'0 0.0
2014-Nov-19 03:33N 49°09' W 123°02'0 0.0
2014-Nov-19 02:33N 49°09' W 123°02'0 0.0
2014-Nov-19 01:33N 49°09' W 123°02'0 0.0
2014-Nov-19 00:33N 49°09' W 123°02'0 0.0
2014-Nov-18 23:33N 49°09' W 123°02'0 0.0
2014-Nov-18 22:33N 49°09' W 123°02'0 0.0
2014-Nov-18 21:33N 49°09' W 123°02'0 0.0
2014-Nov-18 20:33N 49°09' W 123°02'0 0.0
2014-Nov-18 19:33N 49°09' W 123°02'0 0.0
2014-Nov-18 18:33N 49°09' W 123°02'0 0.0
2014-Nov-18 17:33N 49°09' W 123°02'0 0.0
2014-Nov-18 16:33N 49°09' W 123°02'0 0.0
2014-Nov-18 15:33N 49°09' W 123°02'4 4.3
2014-Nov-18 14:33N 49°07' W 123°08'8 8.1
2014-Nov-18 13:33N 49°06' W 123°20'1010.3
2014-Nov-18 12:33N 49°10' W 123°35'10 9.9
2014-Nov-18 11:33N 49°13' W 123°50'5 5.0
2014-Nov-18 10:33N 49°10' W 123°56'0 0.0
2014-Nov-18 09:30N 49°10' W 123°56'5 5.1
2014-Nov-18 08:33N 49°13' W 123°50'10 9.7
2014-Nov-18 07:33N 49°11' W 123°36'10 9.7
2014-Nov-18 06:33N 49°07' W 123°22'1110.7
2014-Nov-18 05:33N 49°07' W 123°06'3 2.9
2014-Nov-18 04:32N 49°09' W 123°02'0 0.0
2014-Nov-18 03:32N 49°09' W 123°02'0 0.0
2014-Nov-18 02:32N 49°09' W 123°02'0 0.0
2014-Nov-18 01:32N 49°09' W 123°02'0 0.0
2014-Nov-18 00:29N 49°09' W 123°02'0 0.0
2014-Nov-17 23:32N 49°09' W 123°02'0 0.0
2014-Nov-17 22:29N 49°09' W 123°02'0 0.0
2014-Nov-17 21:32N 49°09' W 123°02'0 0.0
2014-Nov-17 20:32N 49°09' W 123°02'0 0.0
2014-Nov-17 19:29N 49°09' W 123°02'0 0.0
2014-Nov-17 18:32N 49°09' W 123°02'0 0.0
2014-Nov-17 17:29N 49°09' W 123°02'0 0.0
2014-Nov-17 16:29N 49°09' W 123°02'0 0.0
2014-Nov-17 15:26N 49°09' W 123°02'0 0.0
2014-Nov-17 14:32N 49°09' W 123°02'0 0.0
2014-Nov-17 13:32N 49°09' W 123°02'0 0.0
2014-Nov-17 12:32N 49°09' W 123°02'0 0.0
2014-Nov-17 11:32N 49°09' W 123°02'0 0.0
2014-Nov-17 10:29N 49°09' W 123°02'0 0.0
2014-Nov-17 09:32N 49°09' W 123°02'0 0.0
2014-Nov-17 08:32N 49°09' W 123°02'0 0.0
2014-Nov-17 07:29N 49°09' W 123°02'0 0.0
2014-Nov-17 06:32N 49°09' W 123°02'0 0.0
2014-Nov-17 05:32N 49°09' W 123°02'0 0.0
2014-Nov-17 04:32N 49°09' W 123°02'0 0.0
2014-Nov-17 03:32N 49°09' W 123°02'0 0.0
2014-Nov-17 02:32N 49°09' W 123°02'0 0.0
2014-Nov-17 01:29N 49°09' W 123°02'0 0.0
2014-Nov-17 00:32N 49°09' W 123°02'0 0.0
2014-Nov-16 23:29N 49°09' W 123°02'0 0.0
2014-Nov-16 22:32N 49°09' W 123°02'0 0.0
2014-Nov-16 21:29N 49°09' W 123°02'0 0.0
2014-Nov-16 20:32N 49°09' W 123°02'0 0.0
2014-Nov-16 19:32N 49°09' W 123°02'0 0.0
2014-Nov-16 18:32N 49°09' W 123°02'0 0.0
2014-Nov-16 17:32N 49°09' W 123°02'0 0.0
2014-Nov-16 16:32N 49°09' W 123°02'0 0.0
2014-Nov-16 15:32N 49°09' W 123°02'0 0.0
2014-Nov-16 14:32N 49°09' W 123°02'0 0.0
2014-Nov-16 13:32N 49°09' W 123°02'0 0.0
2014-Nov-16 12:32N 49°09' W 123°02'0 0.0
2014-Nov-16 11:32N 49°09' W 123°02'0 0.0
2014-Nov-16 10:29N 49°09' W 123°02'0 0.0
2014-Nov-16 09:32N 49°09' W 123°02'0 0.0
2014-Nov-16 08:32N 49°09' W 123°02'0 0.0
2014-Nov-16 07:29N 49°09' W 123°02'0 0.0
2014-Nov-16 06:32N 49°09' W 123°02'0 0.0
2014-Nov-16 05:32N 49°09' W 123°02'0 0.0
2014-Nov-16 04:29N 49°09' W 123°02'0 0.0
2014-Nov-16 03:29N 49°09' W 123°02'0 0.0
2014-Nov-16 02:29N 49°09' W 123°02'0 0.0
2014-Nov-16 01:29N 49°09' W 123°02'0 0.0
2014-Nov-16 00:29N 49°09' W 123°02'0 0.0
2014-Nov-15 23:29N 49°09' W 123°02'0 0.0
2014-Nov-15 22:23N 49°09' W 123°02'0 0.0
2014-Nov-15 21:32N 49°09' W 123°02'0 0.0
2014-Nov-15 20:29N 49°09' W 123°02'0 0.0
2014-Nov-15 19:29N 49°09' W 123°02'0 0.0
2014-Nov-15 18:29N 49°09' W 123°02'0 0.0
2014-Nov-15 17:32N 49°09' W 123°02'0 0.0
2014-Nov-15 16:26N 49°09' W 123°02'0 0.0
2014-Nov-15 15:33N 49°09' W 123°02'4 4.2
2014-Nov-15 14:34N 49°07' W 123°08'8 7.5
2014-Nov-15 13:34N 49°06' W 123°19'10 9.9
2014-Nov-15 12:34N 49°09' W 123°33'1010.4
2014-Nov-15 11:34N 49°13' W 123°48'6 5.7
2014-Nov-15 10:33N 49°10' W 123°56'0 0.0
2014-Nov-15 09:28N 49°10' W 123°56'5 5.8
2014-Nov-15 08:33N 49°13' W 123°49'9 9.4
2014-Nov-15 07:33N 49°10' W 123°36'1010.0
2014-Nov-15 06:33N 49°07' W 123°21'1010.4
2014-Nov-15 05:33N 49°07' W 123°05'3 2.5
2014-Nov-15 04:33N 49°09' W 123°02'0 0.0
2014-Nov-15 03:31N 49°09' W 123°02'0 0.0
2014-Nov-15 02:31N 49°09' W 123°02'0 0.0
2014-Nov-15 01:31N 49°09' W 123°02'0 0.0
2014-Nov-15 00:31N 49°09' W 123°02'0 0.0
2014-Nov-14 23:28N 49°09' W 123°02'0 0.0
2014-Nov-14 22:31N 49°09' W 123°02'0 0.0
2014-Nov-14 21:31N 49°09' W 123°02'0 0.0
2014-Nov-14 20:31N 49°09' W 123°02'0 0.0
2014-Nov-14 19:31N 49°09' W 123°02'0 0.0
2014-Nov-14 18:31N 49°09' W 123°02'0 0.0
2014-Nov-14 17:33N 49°09' W 123°02'0 0.0
2014-Nov-14 16:33N 49°09' W 123°02'0 0.0
2014-Nov-14 15:33N 49°09' W 123°02'3 2.8
2014-Nov-14 14:33N 49°07' W 123°06'17 8.6
2014-Nov-14 12:33N 49°09' W 123°32'10 9.9
2014-Nov-14 11:33N 49°12' W 123°46'7 6.6
2014-Nov-14 10:31N 49°10' W 123°56'0 0.0
2014-Nov-14 09:33N 49°10' W 123°56'4 4.4
2014-Nov-14 08:33N 49°13' W 123°51'9 9.4
2014-Nov-14 07:33N 49°10' W 123°37'1010.2
2014-Nov-14 06:33N 49°07' W 123°22'1010.4
2014-Nov-14 05:33N 49°07' W 123°06'  
Track history (hours):
 
Tides and Currents Weather Stations Pressure Air Temp Water Temp Dewpoint Dewpoint Depression Visibility Wind Speed Wind Dir Waves Ship Positions

Arctic Taglu

Last reported at 2014-Nov-24 05:33 UTC. Time now 2014-Nov-24 07:00 UTC.
Position N 49°09' W 123°02'.

Length 33 m; draft 6 m.

Type: Tug. MMSI: 316003483.

Date/timePositionNaut miles runAvg speedWind from/ knotsBaromVisibWave heightAir tempDewpointWater temp
2014-Nov-24 05:33N 49°09' W 123°02'0 0.0
2014-Nov-24 04:33N 49°09' W 123°02'0 0.0
2014-Nov-24 03:33N 49°09' W 123°02'0 0.0
2014-Nov-24 02:33N 49°09' W 123°02'0 0.0
2014-Nov-24 01:33N 49°09' W 123°02'0 0.0
2014-Nov-24 00:33N 49°09' W 123°02'0 0.0
2014-Nov-23 23:33N 49°09' W 123°02'0 0.0
2014-Nov-23 22:33N 49°09' W 123°02'0 0.0
2014-Nov-23 21:33N 49°09' W 123°02'0 0.0
2014-Nov-23 20:33N 49°09' W 123°02'0 0.0
2014-Nov-23 19:33N 49°09' W 123°02'0 0.0
2014-Nov-23 18:33N 49°09' W 123°02'0 0.0
2014-Nov-23 17:33N 49°09' W 123°02'0 0.0
2014-Nov-23 16:33N 49°09' W 123°02'0 0.0
2014-Nov-23 15:33N 49°09' W 123°02'0 0.0
2014-Nov-23 14:33N 49°09' W 123°02'0 0.0
2014-Nov-23 13:33N 49°09' W 123°02'0 0.0
2014-Nov-23 12:33N 49°09' W 123°02'0 0.0
2014-Nov-23 11:33N 49°09' W 123°02'0 0.0
2014-Nov-23 10:33N 49°09' W 123°02'0 0.0
2014-Nov-23 09:33N 49°09' W 123°02'0 0.0
2014-Nov-23 08:33N 49°09' W 123°02'0 0.0
2014-Nov-23 07:30N 49°09' W 123°02'0 0.0
2014-Nov-23 06:33N 49°09' W 123°02'0 0.0
2014-Nov-23 05:33N 49°09' W 123°02'0 0.0
2014-Nov-23 04:33N 49°09' W 123°02'0 0.0
2014-Nov-23 03:33N 49°09' W 123°02'0 0.0
2014-Nov-23 02:33N 49°09' W 123°02'0 0.0
2014-Nov-23 01:33N 49°09' W 123°02'0 0.0
2014-Nov-23 00:33N 49°09' W 123°02'0 0.0
2014-Nov-22 23:33N 49°09' W 123°02'0 0.0
2014-Nov-22 22:33N 49°09' W 123°02'0 0.0
2014-Nov-22 21:30N 49°09' W 123°02'0 0.0
2014-Nov-22 20:33N 49°09' W 123°02'0 0.0
2014-Nov-22 19:33N 49°09' W 123°02'0 0.0
2014-Nov-22 18:33N 49°09' W 123°02'0 0.0
2014-Nov-22 17:30N 49°09' W 123°02'0 0.0
2014-Nov-22 16:33N 49°09' W 123°02'0 0.0
2014-Nov-22 15:33N 49°09' W 123°02'6 6.1
2014-Nov-22 14:33N 49°07' W 123°11'9 8.9
2014-Nov-22 13:33N 49°07' W 123°25'8 7.9
2014-Nov-22 12:33N 49°10' W 123°36'8 8.2
2014-Nov-22 11:33N 49°13' W 123°48'6 6.0
2014-Nov-22 10:33N 49°10' W 123°56'0 0.0
2014-Nov-22 09:33N 49°10' W 123°56'4 3.7
2014-Nov-22 08:33N 49°12' W 123°51'10 9.7
2014-Nov-22 07:33N 49°10' W 123°37'10 9.8
2014-Nov-22 06:33N 49°06' W 123°23'1212.0
2014-Nov-22 05:34N 49°07' W 123°05'2 2.4
2014-Nov-22 04:33N 49°09' W 123°02'0 0.0
2014-Nov-22 03:33N 49°09' W 123°02'0 0.0
2014-Nov-22 02:33N 49°09' W 123°02'0 0.0
2014-Nov-22 01:33N 49°09' W 123°02'0 0.0
2014-Nov-22 00:33N 49°09' W 123°02'0 0.0
2014-Nov-21 23:33N 49°09' W 123°02'0 0.0
2014-Nov-21 22:33N 49°09' W 123°02'0 0.0
2014-Nov-21 21:33N 49°09' W 123°02'0 0.0
2014-Nov-21 20:34N 49°09' W 123°02'0 0.0
2014-Nov-21 19:33N 49°09' W 123°02'0 0.0
2014-Nov-21 18:33N 49°09' W 123°02'0 0.0
2014-Nov-21 17:33N 49°09' W 123°02'0 0.0
2014-Nov-21 16:34N 49°09' W 123°02'0 0.0
2014-Nov-21 15:34N 49°09' W 123°02'5 4.6
2014-Nov-21 14:34N 49°07' W 123°08'9 9.3
2014-Nov-21 13:33N 49°07' W 123°23'10 9.5
2014-Nov-21 12:33N 49°10' W 123°36'9 9.1
2014-Nov-21 11:33N 49°13' W 123°49'5 5.1
2014-Nov-21 10:33N 49°10' W 123°56'0 0.0
2014-Nov-21 09:33N 49°10' W 123°56'3 2.7
2014-Nov-21 08:33N 49°12' W 123°53'10 9.7
2014-Nov-21 07:33N 49°10' W 123°38'1010.3
2014-Nov-21 06:33N 49°06' W 123°24'1211.9
2014-Nov-21 05:34N 49°07' W 123°06'3 2.9
2014-Nov-21 04:33N 49°09' W 123°02'0 0.0
2014-Nov-21 03:33N 49°09' W 123°02'0 0.0
2014-Nov-21 02:33N 49°09' W 123°02'0 0.0
2014-Nov-21 01:31N 49°09' W 123°02'0 0.0
2014-Nov-21 00:33N 49°09' W 123°02'0 0.0
2014-Nov-20 23:33N 49°09' W 123°02'0 0.0
2014-Nov-20 22:33N 49°09' W 123°02'0 0.0
2014-Nov-20 21:33N 49°09' W 123°02'0 0.0
2014-Nov-20 20:33N 49°09' W 123°02'0 0.0
2014-Nov-20 19:33N 49°09' W 123°02'0 0.0
2014-Nov-20 18:33N 49°09' W 123°02'0 0.0
2014-Nov-20 17:33N 49°09' W 123°02'0 0.0
2014-Nov-20 16:33N 49°09' W 123°02'0 0.0
2014-Nov-20 15:33N 49°09' W 123°02'4 3.7
2014-Nov-20 14:33N 49°07' W 123°07'9 9.2
2014-Nov-20 13:33N 49°06' W 123°21'10 9.5
2014-Nov-20 12:33N 49°10' W 123°35'10 9.7
2014-Nov-20 11:33N 49°13' W 123°49'6 5.6
2014-Nov-20 10:33N 49°10' W 123°56'0 0.0
2014-Nov-20 09:33N 49°10' W 123°56'4 4.1
2014-Nov-20 08:33N 49°13' W 123°51'1010.0
2014-Nov-20 07:33N 49°10' W 123°36'1010.3
2014-Nov-20 06:33N 49°06' W 123°22'1111.5
2014-Nov-20 05:33N 49°07' W 123°04'2 2.0
2014-Nov-20 04:33N 49°09' W 123°02'0 0.0
2014-Nov-20 03:31N 49°09' W 123°02'0 0.0
2014-Nov-20 02:31N 49°09' W 123°02'0 0.0
2014-Nov-20 01:31N 49°09' W 123°02'0 0.0
2014-Nov-20 00:31N 49°09' W 123°02'0 0.0
2014-Nov-19 23:31N 49°09' W 123°02'0 0.0
2014-Nov-19 22:31N 49°09' W 123°02'0 0.0
2014-Nov-19 21:31N 49°09' W 123°02'0 0.0
2014-Nov-19 20:31N 49°09' W 123°02'0 0.0
2014-Nov-19 19:28N 49°09' W 123°02'0 0.0
2014-Nov-19 18:31N 49°09' W 123°02'0 0.0
2014-Nov-19 17:31N 49°09' W 123°02'0 0.0
2014-Nov-19 16:33N 49°09' W 123°02'0 0.0
2014-Nov-19 15:33N 49°09' W 123°02'3 2.9
2014-Nov-19 14:33N 49°07' W 123°06'9 8.6
2014-Nov-19 13:33N 49°06' W 123°19'1010.0
2014-Nov-19 12:33N 49°09' W 123°33'10 9.9
2014-Nov-19 11:33N 49°13' W 123°47'7 6.2
2014-Nov-19 10:28N 49°10' W 123°56'0 0.0
2014-Nov-19 09:33N 49°10' W 123°56'4 4.2
2014-Nov-19 08:33N 49°13' W 123°51'1010.0
2014-Nov-19 07:33N 49°10' W 123°36'10 9.9
2014-Nov-19 06:33N 49°07' W 123°22'1111.2
2014-Nov-19 05:33N 49°07' W 123°05'2 2.5
2014-Nov-19 04:33N 49°09' W 123°02'0 0.0
2014-Nov-19 03:33N 49°09' W 123°02'0 0.0
2014-Nov-19 02:33N 49°09' W 123°02'0 0.0
2014-Nov-19 01:33N 49°09' W 123°02'0 0.0
2014-Nov-19 00:33N 49°09' W 123°02'0 0.0
2014-Nov-18 23:33N 49°09' W 123°02'0 0.0
2014-Nov-18 22:33N 49°09' W 123°02'0 0.0
2014-Nov-18 21:33N 49°09' W 123°02'0 0.0
2014-Nov-18 20:33N 49°09' W 123°02'0 0.0
2014-Nov-18 19:33N 49°09' W 123°02'0 0.0
2014-Nov-18 18:33N 49°09' W 123°02'0 0.0
2014-Nov-18 17:33N 49°09' W 123°02'0 0.0
2014-Nov-18 16:33N 49°09' W 123°02'0 0.0
2014-Nov-18 15:33N 49°09' W 123°02'4 4.3
2014-Nov-18 14:33N 49°07' W 123°08'8 8.1
2014-Nov-18 13:33N 49°06' W 123°20'1010.3
2014-Nov-18 12:33N 49°10' W 123°35'10 9.9
2014-Nov-18 11:33N 49°13' W 123°50'5 5.0
2014-Nov-18 10:33N 49°10' W 123°56'0 0.0
2014-Nov-18 09:30N 49°10' W 123°56'5 5.1
2014-Nov-18 08:33N 49°13' W 123°50'10 9.7
2014-Nov-18 07:33N 49°11' W 123°36'10 9.7
2014-Nov-18 06:33N 49°07' W 123°22'1110.7
2014-Nov-18 05:33N 49°07' W 123°06'3 2.9
2014-Nov-18 04:32N 49°09' W 123°02'0 0.0
2014-Nov-18 03:32N 49°09' W 123°02'0 0.0
2014-Nov-18 02:32N 49°09' W 123°02'0 0.0
2014-Nov-18 01:32N 49°09' W 123°02'0 0.0
2014-Nov-18 00:29N 49°09' W 123°02'0 0.0
2014-Nov-17 23:32N 49°09' W 123°02'0 0.0
2014-Nov-17 22:29N 49°09' W 123°02'0 0.0
2014-Nov-17 21:32N 49°09' W 123°02'0 0.0
2014-Nov-17 20:32N 49°09' W 123°02'0 0.0
2014-Nov-17 19:29N 49°09' W 123°02'0 0.0
2014-Nov-17 18:32N 49°09' W 123°02'0 0.0
2014-Nov-17 17:29N 49°09' W 123°02'0 0.0
2014-Nov-17 16:29N 49°09' W 123°02'0 0.0
2014-Nov-17 15:26N 49°09' W 123°02'0 0.0
2014-Nov-17 14:32N 49°09' W 123°02'0 0.0
2014-Nov-17 13:32N 49°09' W 123°02'0 0.0
2014-Nov-17 12:32N 49°09' W 123°02'0 0.0
2014-Nov-17 11:32N 49°09' W 123°02'0 0.0
2014-Nov-17 10:29N 49°09' W 123°02'0 0.0
2014-Nov-17 09:32N 49°09' W 123°02'0 0.0
2014-Nov-17 08:32N 49°09' W 123°02'0 0.0
2014-Nov-17 07:29N 49°09' W 123°02'0 0.0
2014-Nov-17 06:32N 49°09' W 123°02'0 0.0
2014-Nov-17 05:32N 49°09' W 123°02'0 0.0
2014-Nov-17 04:32N 49°09' W 123°02'0 0.0
2014-Nov-17 03:32N 49°09' W 123°02'0 0.0
2014-Nov-17 02:32N 49°09' W 123°02'0 0.0
2014-Nov-17 01:29N 49°09' W 123°02'0 0.0
2014-Nov-17 00:32N 49°09' W 123°02'0 0.0
2014-Nov-16 23:29N 49°09' W 123°02'0 0.0
2014-Nov-16 22:32N 49°09' W 123°02'0 0.0
2014-Nov-16 21:29N 49°09' W 123°02'0 0.0
2014-Nov-16 20:32N 49°09' W 123°02'0 0.0
2014-Nov-16 19:32N 49°09' W 123°02'0 0.0
2014-Nov-16 18:32N 49°09' W 123°02'0 0.0
2014-Nov-16 17:32N 49°09' W 123°02'0 0.0
2014-Nov-16 16:32N 49°09' W 123°02'0 0.0
2014-Nov-16 15:32N 49°09' W 123°02'0 0.0
2014-Nov-16 14:32N 49°09' W 123°02'0 0.0
2014-Nov-16 13:32N 49°09' W 123°02'0 0.0
2014-Nov-16 12:32N 49°09' W 123°02'0 0.0
2014-Nov-16 11:32N 49°09' W 123°02'0 0.0
2014-Nov-16 10:29N 49°09' W 123°02'0 0.0
2014-Nov-16 09:32N 49°09' W 123°02'0 0.0
2014-Nov-16 08:32N 49°09' W 123°02'0 0.0
2014-Nov-16 07:29N 49°09' W 123°02'0 0.0
2014-Nov-16 06:32N 49°09' W 123°02'0 0.0
2014-Nov-16 05:32N 49°09' W 123°02'0 0.0
2014-Nov-16 04:29N 49°09' W 123°02'0 0.0
2014-Nov-16 03:29N 49°09' W 123°02'0 0.0
2014-Nov-16 02:29N 49°09' W 123°02'0 0.0
2014-Nov-16 01:29N 49°09' W 123°02'0 0.0
2014-Nov-16 00:29N 49°09' W 123°02'0 0.0
2014-Nov-15 23:29N 49°09' W 123°02'0 0.0
2014-Nov-15 22:23N 49°09' W 123°02'0 0.0
2014-Nov-15 21:32N 49°09' W 123°02'0 0.0
2014-Nov-15 20:29N 49°09' W 123°02'0 0.0
2014-Nov-15 19:29N 49°09' W 123°02'0 0.0
2014-Nov-15 18:29N 49°09' W 123°02'0 0.0
2014-Nov-15 17:32N 49°09' W 123°02'0 0.0
2014-Nov-15 16:26N 49°09' W 123°02'0 0.0
2014-Nov-15 15:33N 49°09' W 123°02'4 4.2
2014-Nov-15 14:34N 49°07' W 123°08'8 7.5
2014-Nov-15 13:34N 49°06' W 123°19'10 9.9
2014-Nov-15 12:34N 49°09' W 123°33'1010.4
2014-Nov-15 11:34N 49°13' W 123°48'6 5.7
2014-Nov-15 10:33N 49°10' W 123°56'0 0.0
2014-Nov-15 09:28N 49°10' W 123°56'5 5.8
2014-Nov-15 08:33N 49°13' W 123°49'9 9.4
2014-Nov-15 07:33N 49°10' W 123°36'1010.0
2014-Nov-15 06:33N 49°07' W 123°21'1010.4
2014-Nov-15 05:33N 49°07' W 123°05'3 2.5
2014-Nov-15 04:33N 49°09' W 123°02'0 0.0
2014-Nov-15 03:31N 49°09' W 123°02'0 0.0
2014-Nov-15 02:31N 49°09' W 123°02'0 0.0
2014-Nov-15 01:31N 49°09' W 123°02'0 0.0
2014-Nov-15 00:31N 49°09' W 123°02'0 0.0
2014-Nov-14 23:28N 49°09' W 123°02'0 0.0
2014-Nov-14 22:31N 49°09' W 123°02'0 0.0
2014-Nov-14 21:31N 49°09' W 123°02'0 0.0
2014-Nov-14 20:31N 49°09' W 123°02'0 0.0
2014-Nov-14 19:31N 49°09' W 123°02'0 0.0
2014-Nov-14 18:31N 49°09' W 123°02'0 0.0
2014-Nov-14 17:33N 49°09' W 123°02'0 0.0
2014-Nov-14 16:33N 49°09' W 123°02'0 0.0
2014-Nov-14 15:33N 49°09' W 123°02'3 2.8
2014-Nov-14 14:33N 49°07' W 123°06'17 8.6
2014-Nov-14 12:33N 49°09' W 123°32'10 9.9
2014-Nov-14 11:33N 49°12' W 123°46'7 6.6
2014-Nov-14 10:31N 49°10' W 123°56'0 0.0
2014-Nov-14 09:33N 49°10' W 123°56'4 4.4
2014-Nov-14 08:33N 49°13' W 123°51'9 9.4
2014-Nov-14 07:33N 49°10' W 123°37'1010.2
2014-Nov-14 06:33N 49°07' W 123°22'1010.4
2014-Nov-14 05:33N 49°07' W 123°06'  

Dump ship's entire track history